createdAt,value
2019-04-23T00:01:07.565Z,1.57
2019-04-23T00:03:35.734Z,1.87
2019-04-23T00:06:08.561Z,2.07
2019-04-23T00:08:42.258Z,1.60
2019-04-23T00:11:15.698Z,1.33
2019-04-23T00:16:12.893Z,1.57
2019-04-23T00:18:42.249Z,1.50
2019-04-23T00:21:38.150Z,1.40
2019-04-23T00:24:16.030Z,1.70
2019-04-23T00:26:37.055Z,1.43
2019-04-23T00:29:14.956Z,1.53
2019-04-23T00:31:41.300Z,1.53
2019-04-23T00:34:09.356Z,1.67
2019-04-23T00:36:51.794Z,1.90
2019-04-23T00:39:08.329Z,1.50
2019-04-23T00:44:09.097Z,1.50
2019-04-23T00:46:40.073Z,1.70
2019-04-23T00:49:14.492Z,1.57
2019-04-23T00:51:48.201Z,1.60
2019-04-23T00:54:17.770Z,1.50
2019-04-23T00:56:45.969Z,1.80
2019-04-23T00:59:18.913Z,1.93
2019-04-23T01:02:01.117Z,1.50
2019-04-23T01:04:17.184Z,1.60
2019-04-23T01:06:52.838Z,1.97
2019-04-23T01:09:22.710Z,1.67
2019-04-23T01:11:50.110Z,1.73
2019-04-23T01:14:21.559Z,1.90
2019-04-23T01:16:50.324Z,1.90
2019-04-23T01:21:49.335Z,1.70
2019-04-23T01:24:45.843Z,2.13
2019-04-23T01:30:13.968Z,2.10
2019-04-23T01:32:44.058Z,1.40
2019-04-23T01:35:17.770Z,1.73
2019-04-23T01:40:18.784Z,1.87
2019-04-23T01:42:43.965Z,2.10
2019-04-23T01:47:50.135Z,1.70
2019-04-23T01:55:27.737Z,1.43
2019-04-23T01:58:05.784Z,2.30
2019-04-23T02:00:30.727Z,1.77
2019-04-23T02:05:38.471Z,1.97
2019-04-23T02:08:03.246Z,1.90
2019-04-23T02:10:39.535Z,2.03
2019-04-23T02:15:46.210Z,1.83
2019-04-23T02:20:42.981Z,2.07
2019-04-23T02:25:50.501Z,1.80
2019-04-23T02:31:14.802Z,1.90
2019-04-23T02:33:34.414Z,1.97
2019-04-23T02:38:40.587Z,3.57
2019-04-23T02:41:19.857Z,2.40
2019-04-23T02:43:55.190Z,2.40
2019-04-23T02:46:27.365Z,2.57
2019-04-23T02:48:56.609Z,2.60
2019-04-23T02:51:04.435Z,2.50
2019-04-23T02:56:12.159Z,2.30
2019-04-23T03:01:27.489Z,2.33
2019-04-23T03:03:58.035Z,2.33
2019-04-23T03:06:22.816Z,2.93
2019-04-23T03:11:26.057Z,2.10
2019-04-23T03:24:55.469Z,2.30
2019-04-23T03:37:33.296Z,2.13
2019-04-23T03:40:04.333Z,2.60
2019-04-23T03:45:07.602Z,2.57
2019-04-23T03:50:11.545Z,2.60
2019-04-23T03:55:32.738Z,2.90
2019-04-23T04:00:12.590Z,2.60
2019-04-23T04:02:52.522Z,3.43
2019-04-23T04:05:15.215Z,3.40
2019-04-23T04:10:09.081Z,2.90
2019-04-23T04:15:31.347Z,3.47
2019-04-23T04:17:48.183Z,2.57
2019-04-23T04:20:29.051Z,2.93
2019-04-23T04:23:00.408Z,3.37
2019-04-23T04:25:26.145Z,3.20
2019-04-23T04:28:01.056Z,2.80
2019-04-23T04:30:25.364Z,2.60
2019-04-23T04:40:29.479Z,2.40
2019-04-23T04:43:09.273Z,3.10
2019-04-23T04:47:53.957Z,3.30
2019-04-23T04:50:24.152Z,3.23
2019-04-23T04:53:11.347Z,3.33
2019-04-23T04:57:58.064Z,16.87
2019-04-23T05:00:44.137Z,3.00
2019-04-23T05:08:05.201Z,3.10
2019-04-23T05:10:49.761Z,3.47
2019-04-23T05:13:35.343Z,4.80
2019-04-23T05:15:44.342Z,8.83
2019-04-23T05:18:23.530Z,3.33
2019-04-23T05:23:54.394Z,3.30
2019-04-23T05:26:21.013Z,3.50
2019-04-23T05:28:55.928Z,3.60
2019-04-23T05:33:57.289Z,3.53
2019-04-23T05:41:23.350Z,3.30
2019-04-23T05:43:57.461Z,5.57
2019-04-23T05:46:26.349Z,3.40
2019-04-23T05:51:28.327Z,3.33
2019-04-23T05:56:27.468Z,3.90
2019-04-23T05:58:58.090Z,3.53
2019-04-23T06:06:45.546Z,4.07
2019-04-23T06:16:49.291Z,3.50
2019-04-23T06:19:17.779Z,3.33
2019-04-23T06:21:57.534Z,3.90
2019-04-23T06:24:24.948Z,3.40
2019-04-23T06:29:29.774Z,4.27
2019-04-23T06:31:52.619Z,3.60
2019-04-23T06:34:26.504Z,4.60
2019-04-23T06:36:54.141Z,3.20
2019-04-23T06:39:23.267Z,4.13
2019-04-23T06:41:54.795Z,4.10
2019-04-23T06:49:37.700Z,3.67
2019-04-23T06:52:10.522Z,3.53
2019-04-23T06:54:42.565Z,3.33
2019-04-23T06:57:15.295Z,3.87
2019-04-23T07:02:11.830Z,3.60
2019-04-23T07:04:41.083Z,4.20
2019-04-23T07:07:34.058Z,3.80
2019-04-23T07:09:34.899Z,3.70
2019-04-23T07:12:11.135Z,3.70
2019-04-23T07:17:10.372Z,3.73
2019-04-23T07:19:41.905Z,3.20
2019-04-23T07:24:50.905Z,3.87
2019-04-23T07:27:15.197Z,4.20
2019-04-23T07:32:15.213Z,3.80
2019-04-23T07:34:59.186Z,3.13
2019-04-23T07:37:17.669Z,3.80
2019-04-23T07:42:42.132Z,3.90
2019-04-23T07:45:17.145Z,3.40
2019-04-23T07:48:10.828Z,3.80
2019-04-23T07:50:41.252Z,3.20
2019-04-23T07:53:12.563Z,3.57
2019-04-23T07:55:56.835Z,3.80
2019-04-23T08:03:17.725Z,3.40
2019-04-23T08:05:38.681Z,3.98
2019-04-23T08:08:11.680Z,3.93
2019-04-23T08:11:19.872Z,3.73
2019-04-23T08:13:38.013Z,3.90
2019-04-23T08:15:53.977Z,3.93
2019-04-23T08:18:29.963Z,3.77
2019-04-23T08:20:53.881Z,3.80
2019-04-23T08:23:45.794Z,4.07
2019-04-23T08:26:34.773Z,3.53
2019-04-23T08:29:05.790Z,3.80
2019-04-23T08:31:40.295Z,3.67
2019-04-23T08:39:03.489Z,3.87
2019-04-23T08:41:44.590Z,3.83
2019-04-23T08:44:18.273Z,3.53
2019-04-23T08:47:00.097Z,3.47
2019-04-23T08:54:37.136Z,3.73
2019-04-23T08:56:55.234Z,3.70
2019-04-23T08:59:31.619Z,4.00
2019-04-23T09:04:31.213Z,3.90
2019-04-23T09:07:09.611Z,4.20
2019-04-23T09:09:35.012Z,4.07
2019-04-23T09:12:04.012Z,3.93
2019-04-23T09:14:33.313Z,3.97
2019-04-23T09:17:06.852Z,3.73
2019-04-23T09:19:42.257Z,4.13
2019-04-23T09:22:09.409Z,4.20
2019-04-23T09:24:44.946Z,3.97
2019-04-23T09:27:18.188Z,4.17
2019-04-23T09:29:45.774Z,4.20
2019-04-23T09:38:07.089Z,3.73
2019-04-23T09:41:15.021Z,3.70
2019-04-23T09:43:36.943Z,3.70
2019-04-23T09:46:32.583Z,3.47
2019-04-23T09:51:32.760Z,4.23
2019-04-23T09:54:04.440Z,3.87
2019-04-23T09:56:37.681Z,3.33
2019-04-23T09:59:10.954Z,3.83
2019-04-23T10:01:42.493Z,4.20
2019-04-23T10:03:50.518Z,3.90
2019-04-23T10:06:18.102Z,4.67
2019-04-23T10:08:47.423Z,4.23
2019-04-23T10:11:13.619Z,4.20
2019-04-23T10:13:44.812Z,4.03
2019-04-23T10:16:17.336Z,4.10
2019-04-23T10:18:46.830Z,4.10
2019-04-23T10:21:17.466Z,4.13
2019-04-23T10:23:47.472Z,3.80
2019-04-23T10:26:17.084Z,3.77
2019-04-23T10:28:49.877Z,3.70
2019-04-23T10:31:20.725Z,3.60
2019-04-23T10:33:50.535Z,3.90
2019-04-23T10:36:25.080Z,4.13
2019-04-23T10:38:59.966Z,3.70
2019-04-23T10:41:23.112Z,3.73
2019-04-23T10:44:15.237Z,3.73
2019-04-23T10:47:30.238Z,4.20
2019-04-23T10:50:05.548Z,4.23
2019-04-23T10:55:06.247Z,3.13
2019-04-23T10:57:31.211Z,3.67
2019-04-23T11:00:09.691Z,4.05
2019-04-23T11:05:16.227Z,3.97
2019-04-23T11:07:53.603Z,3.10
2019-04-23T11:10:15.889Z,4.17
2019-04-23T11:13:19.409Z,4.27
2019-04-23T11:17:58.287Z,3.97
2019-04-23T11:23:00.820Z,3.70
2019-04-23T11:25:34.937Z,4.60
2019-04-23T11:28:13.572Z,4.47
2019-04-23T11:30:45.228Z,4.10
2019-04-23T11:33:22.906Z,4.10
2019-04-23T11:40:56.669Z,4.33
2019-04-23T11:43:29.043Z,4.23
2019-04-23T11:46:06.365Z,4.63
2019-04-23T11:48:46.219Z,3.67
2019-04-23T11:51:39.407Z,3.90
2019-04-23T11:53:46.478Z,3.90
2019-04-23T11:58:37.628Z,4.17
2019-04-23T12:04:45.309Z,3.87
2019-04-23T12:07:21.431Z,4.83
2019-04-23T12:09:53.846Z,4.23
2019-04-23T12:12:23.540Z,4.00
2019-04-23T12:15:18.383Z,3.93
2019-04-23T12:17:46.810Z,3.33
2019-04-23T12:22:42.219Z,3.50
2019-04-23T12:27:39.345Z,3.97
2019-04-23T12:30:16.395Z,3.80
2019-04-23T12:32:48.453Z,4.07
2019-04-23T12:50:45.502Z,3.73
2019-04-23T12:55:35.880Z,3.80
2019-04-23T12:58:01.863Z,3.60
2019-04-23T13:00:35.699Z,4.80
2019-04-23T13:03:08.583Z,3.70
2019-04-23T13:05:34.201Z,4.20
2019-04-23T13:08:08.229Z,4.37
2019-04-23T13:13:16.727Z,4.60
2019-04-23T13:15:45.645Z,3.93
2019-04-23T13:18:15.634Z,4.00
2019-04-23T13:20:39.475Z,3.77
2019-04-23T13:23:19.857Z,4.10
2019-04-23T13:38:38.299Z,3.87
2019-04-23T13:41:11.430Z,3.67
2019-04-23T13:43:40.456Z,3.83
2019-04-23T13:46:14.113Z,4.00
2019-04-23T13:48:30.094Z,3.83
2019-04-23T13:51:14.220Z,4.33
2019-04-23T13:53:53.469Z,3.77
2019-04-23T13:56:18.646Z,4.20
2019-04-23T13:58:43.302Z,4.37
2019-04-23T14:11:23.610Z,4.20
2019-04-23T14:14:08.365Z,3.70
2019-04-23T14:16:29.792Z,4.40
2019-04-23T14:21:24.903Z,4.20
2019-04-23T14:28:53.283Z,4.00
2019-04-23T14:31:21.920Z,4.17
2019-04-23T14:34:27.220Z,4.23
2019-04-23T14:39:22.272Z,4.30
2019-04-23T14:42:07.166Z,4.17
2019-04-23T14:44:19.003Z,3.83
2019-04-23T14:49:33.974Z,4.63
2019-04-23T14:54:35.831Z,4.30
2019-04-23T14:56:58.838Z,3.70
2019-04-23T14:59:15.031Z,3.93
2019-04-23T15:01:55.091Z,4.47
2019-04-23T15:04:27.171Z,3.87
2019-04-23T15:07:00.952Z,4.03
2019-04-23T15:14:33.878Z,4.97
2019-04-23T15:19:40.324Z,4.50
2019-04-23T15:24:40.781Z,5.10
2019-04-23T15:29:32.868Z,4.30
2019-04-23T15:32:34.866Z,4.37
2019-04-23T15:34:47.355Z,4.87
2019-04-23T15:39:55.146Z,4.70
2019-04-23T15:42:26.697Z,4.97
2019-04-23T15:44:48.757Z,4.47
2019-04-23T15:52:27.303Z,4.00
2019-04-23T15:54:56.487Z,4.30
2019-04-23T15:57:32.446Z,5.50
2019-04-23T15:59:55.410Z,4.23
2019-04-23T16:01:58.538Z,4.33
2019-04-23T16:04:29.670Z,4.60
2019-04-23T16:06:59.605Z,4.70
2019-04-23T16:10:04.195Z,3.83
2019-04-23T16:12:27.394Z,4.90
2019-04-23T16:15:02.666Z,4.60
2019-04-23T16:17:35.530Z,4.17
2019-04-23T16:20:29.571Z,4.30
2019-04-23T16:22:51.288Z,4.13
2019-04-23T16:25:22.217Z,4.10
2019-04-23T16:27:59.672Z,4.00
2019-04-23T16:30:24.607Z,4.07
2019-04-23T16:33:08.562Z,3.77
2019-04-23T16:36:32.405Z,3.60
2019-04-23T16:41:10.874Z,3.60
2019-04-23T16:43:33.725Z,4.10
2019-04-23T16:53:31.031Z,4.20
2019-04-23T16:56:11.490Z,3.40
2019-04-23T16:58:48.865Z,4.13
2019-04-23T17:03:37.925Z,4.43
2019-04-23T17:06:23.480Z,3.90
2019-04-23T17:08:50.604Z,4.37
2019-04-23T17:11:15.749Z,4.27
2019-04-23T17:13:44.749Z,3.90
2019-04-23T17:16:23.572Z,4.27
2019-04-23T17:18:48.715Z,4.17
2019-04-23T17:21:16.922Z,4.10
2019-04-23T17:28:52.359Z,4.17
2019-04-23T17:33:59.072Z,3.70
2019-04-23T17:39:16.299Z,4.73
2019-04-23T17:44:47.018Z,4.97
2019-04-23T17:47:37.687Z,4.30
2019-04-23T17:50:05.617Z,4.03
2019-04-23T17:52:37.278Z,4.50
2019-04-23T17:57:36.544Z,4.03
2019-04-23T18:10:25.040Z,3.80
2019-04-23T18:12:53.707Z,4.30
2019-04-23T18:15:15.882Z,4.30
2019-04-23T18:20:38.458Z,4.30
2019-04-23T18:28:08.446Z,5.50
2019-04-23T18:31:10.809Z,4.17
2019-04-23T18:34:05.511Z,5.20
2019-04-23T18:36:08.093Z,5.20
2019-04-23T18:38:50.159Z,5.97
2019-04-23T18:41:41.579Z,5.33
2019-04-23T18:43:51.099Z,5.07
2019-04-23T18:46:27.842Z,5.40
2019-04-23T18:48:57.857Z,5.33
2019-04-23T18:51:42.196Z,4.77
2019-04-23T18:53:53.816Z,4.83
2019-04-23T19:01:31.057Z,4.57
2019-04-23T19:06:44.192Z,4.57
2019-04-23T19:10:12.043Z,4.90
2019-04-23T19:12:48.662Z,4.57
2019-04-23T19:15:23.449Z,4.70
2019-04-23T19:25:16.950Z,5.13
2019-04-23T19:27:50.310Z,5.10
2019-04-23T19:33:05.088Z,4.90
2019-04-23T19:35:59.052Z,4.97
2019-04-23T19:38:10.577Z,5.23
2019-04-23T19:40:49.327Z,5.17
2019-04-23T19:43:11.514Z,5.10
2019-04-23T19:45:49.743Z,5.50
2019-04-23T19:48:21.209Z,5.47
2019-04-23T19:51:06.062Z,4.80
2019-04-23T19:53:29.704Z,4.97
2019-04-23T19:56:03.905Z,5.10
2019-04-23T19:58:32.495Z,4.53
2019-04-23T20:03:39.572Z,4.97
2019-04-23T20:06:05.941Z,5.37
2019-04-23T20:08:34.048Z,5.77
2019-04-23T20:10:54.569Z,5.30
2019-04-23T20:13:37.888Z,4.90
2019-04-23T20:18:41.552Z,5.90
2019-04-23T20:20:59.272Z,5.37
2019-04-23T20:36:46.185Z,5.70
2019-04-23T20:39:16.681Z,5.93
2019-04-23T20:42:10.868Z,5.97
2019-04-23T20:44:39.429Z,4.77
2019-04-23T20:49:38.809Z,5.97
2019-04-23T20:54:42.257Z,6.10
2019-04-23T20:57:31.557Z,5.23
2019-04-23T21:03:25.958Z,6.17
2019-04-23T21:05:24.143Z,5.70
2019-04-23T21:08:14.169Z,5.97
2019-04-23T21:15:38.909Z,6.70
2019-04-23T21:18:15.414Z,5.57
2019-04-23T21:20:43.408Z,6.30
2019-04-23T21:23:12.449Z,5.43
2019-04-23T21:25:43.832Z,5.60
2019-04-23T21:31:04.918Z,6.33
2019-04-23T21:33:48.117Z,5.07
2019-04-23T21:44:35.899Z,5.40
2019-04-23T21:47:04.705Z,5.93
2019-04-23T21:49:45.401Z,5.67
2019-04-23T21:52:05.005Z,5.67
2019-04-23T21:54:47.166Z,5.17
2019-04-23T21:57:08.816Z,5.53
2019-04-23T21:59:41.531Z,4.57
2019-04-23T22:02:13.399Z,5.20
2019-04-23T22:04:49.989Z,5.00
2019-04-23T22:07:19.408Z,5.13
2019-04-23T22:12:13.563Z,4.80
2019-04-23T22:14:50.836Z,4.93
2019-04-23T22:22:32.129Z,5.20
2019-04-23T22:24:53.336Z,5.10
2019-04-23T22:27:16.591Z,5.20
2019-04-23T22:29:50.425Z,5.43
2019-04-23T22:32:37.229Z,4.97
2019-04-23T22:34:57.190Z,4.70
2019-04-23T22:37:36.517Z,5.30
2019-04-23T22:40:02.555Z,5.10
2019-04-23T22:42:54.163Z,5.63
2019-04-23T22:47:39.339Z,4.70
2019-04-23T22:50:19.841Z,5.37
2019-04-23T22:52:40.949Z,5.00
2019-04-23T22:55:07.909Z,5.23
2019-04-23T22:57:56.477Z,5.10
2019-04-23T23:00:14.718Z,5.43
2019-04-23T23:05:56.258Z,4.83
2019-04-23T23:08:16.585Z,4.70
2019-04-23T23:10:50.569Z,5.20
2019-04-23T23:13:18.588Z,5.10
2019-04-23T23:15:53.350Z,5.87
2019-04-23T23:18:17.867Z,5.37
2019-04-23T23:20:57.492Z,5.70
2019-04-23T23:25:54.215Z,5.30
2019-04-23T23:28:31.350Z,5.90
2019-04-23T23:31:05.310Z,5.20
2019-04-23T23:36:06.539Z,5.73
2019-04-23T23:38:36.892Z,5.73
2019-04-23T23:41:20.810Z,5.17
2019-04-23T23:43:29.913Z,4.93
2019-04-23T23:46:17.311Z,5.10
2019-04-23T23:48:38.413Z,5.63
2019-04-23T23:56:10.847Z,4.83
